sensor_id;sensor_type;location;lat;lon;timestamp;P1;durP1;ratioP1;P2;durP2;ratioP2
11709;SDS011;5911;51.036;6.972;2022-08-19T00:01:43;11.55;;;10.27;;
11709;SDS011;5911;51.036;6.972;2022-08-19T00:04:19;11.05;;;10.02;;
11709;SDS011;5911;51.036;6.972;2022-08-19T00:06:49;11.70;;;9.45;;
11709;SDS011;5911;51.036;6.972;2022-08-19T00:09:19;10.23;;;9.32;;
11709;SDS011;5911;51.036;6.972;2022-08-19T00:11:49;10.55;;;9.57;;
11709;SDS011;5911;51.036;6.972;2022-08-19T00:14:17;10.48;;;9.52;;
11709;SDS011;5911;51.036;6.972;2022-08-19T00:16:46;11.32;;;10.20;;
11709;SDS011;5911;51.036;6.972;2022-08-19T00:19:15;10.55;;;9.55;;
11709;SDS011;5911;51.036;6.972;2022-08-19T00:21:44;11.20;;;10.10;;
11709;SDS011;5911;51.036;6.972;2022-08-19T00:24:13;12.10;;;10.20;;
11709;SDS011;5911;51.036;6.972;2022-08-19T00:26:43;13.18;;;10.90;;
11709;SDS011;5911;51.036;6.972;2022-08-19T00:29:12;10.60;;;9.70;;
11709;SDS011;5911;51.036;6.972;2022-08-19T00:31:41;10.15;;;9.35;;
11709;SDS011;5911;51.036;6.972;2022-08-19T00:34:10;10.93;;;9.75;;
11709;SDS011;5911;51.036;6.972;2022-08-19T00:36:38;10.18;;;9.23;;
11709;SDS011;5911;51.036;6.972;2022-08-19T00:39:07;10.07;;;9.23;;
11709;SDS011;5911;51.036;6.972;2022-08-19T00:41:35;10.98;;;10.00;;
11709;SDS011;5911;51.036;6.972;2022-08-19T00:44:05;10.90;;;10.10;;
11709;SDS011;5911;51.036;6.972;2022-08-19T00:46:36;11.45;;;10.45;;
11709;SDS011;5911;51.036;6.972;2022-08-19T00:49:06;12.05;;;10.95;;
11709;SDS011;5911;51.036;6.972;2022-08-19T00:51:41;11.10;;;9.95;;
11709;SDS011;5911;51.036;6.972;2022-08-19T00:54:11;11.77;;;9.75;;
11709;SDS011;5911;51.036;6.972;2022-08-19T00:56:39;11.35;;;10.25;;
11709;SDS011;5911;51.036;6.972;2022-08-19T00:59:09;11.30;;;10.40;;
11709;SDS011;5911;51.036;6.972;2022-08-19T01:01:38;11.48;;;10.32;;
11709;SDS011;5911;51.036;6.972;2022-08-19T01:04:09;11.38;;;10.38;;
11709;SDS011;5911;51.036;6.972;2022-08-19T01:06:37;11.65;;;10.50;;
11709;SDS011;5911;51.036;6.972;2022-08-19T01:09:07;11.32;;;10.13;;
11709;SDS011;5911;51.036;6.972;2022-08-19T01:11:37;11.48;;;10.48;;
11709;SDS011;5911;51.036;6.972;2022-08-19T01:14:10;11.80;;;10.70;;
11709;SDS011;5911;51.036;6.972;2022-08-19T01:16:39;12.55;;;10.93;;
11709;SDS011;5911;51.036;6.972;2022-08-19T01:19:10;12.23;;;10.52;;
11709;SDS011;5911;51.036;6.972;2022-08-19T01:21:44;11.57;;;10.38;;
11709;SDS011;5911;51.036;6.972;2022-08-19T01:24:20;12.32;;;11.13;;
11709;SDS011;5911;51.036;6.972;2022-08-19T01:26:48;12.13;;;10.90;;
11709;SDS011;5911;51.036;6.972;2022-08-19T01:29:15;11.48;;;10.48;;
11709;SDS011;5911;51.036;6.972;2022-08-19T01:31:45;11.35;;;10.45;;
11709;SDS011;5911;51.036;6.972;2022-08-19T01:34:13;11.88;;;10.75;;
11709;SDS011;5911;51.036;6.972;2022-08-19T01:36:41;15.15;;;11.20;;
11709;SDS011;5911;51.036;6.972;2022-08-19T01:39:13;11.50;;;10.50;;
11709;SDS011;5911;51.036;6.972;2022-08-19T01:41:45;11.25;;;10.25;;
11709;SDS011;5911;51.036;6.972;2022-08-19T01:44:13;12.20;;;10.82;;
11709;SDS011;5911;51.036;6.972;2022-08-19T01:46:45;11.43;;;10.32;;
11709;SDS011;5911;51.036;6.972;2022-08-19T01:49:14;12.18;;;10.88;;
11709;SDS011;5911;51.036;6.972;2022-08-19T01:51:43;12.70;;;11.40;;
11709;SDS011;5911;51.036;6.972;2022-08-19T01:54:11;12.38;;;11.18;;
11709;SDS011;5911;51.036;6.972;2022-08-19T01:56:55;12.30;;;11.23;;
11709;SDS011;5911;51.036;6.972;2022-08-19T01:59:27;12.60;;;11.40;;
11709;SDS011;5911;51.036;6.972;2022-08-19T02:01:55;12.57;;;11.07;;
11709;SDS011;5911;51.036;6.972;2022-08-19T02:04:23;13.20;;;11.90;;
11709;SDS011;5911;51.036;6.972;2022-08-19T02:06:52;12.43;;;11.32;;
11709;SDS011;5911;51.036;6.972;2022-08-19T02:09:20;13.07;;;11.90;;
11709;SDS011;5911;51.036;6.972;2022-08-19T02:11:48;13.00;;;11.90;;
11709;SDS011;5911;51.036;6.972;2022-08-19T02:14:17;13.00;;;11.90;;
11709;SDS011;5911;51.036;6.972;2022-08-19T02:16:45;12.48;;;11.32;;
11709;SDS011;5911;51.036;6.972;2022-08-19T02:19:13;12.90;;;11.77;;
11709;SDS011;5911;51.036;6.972;2022-08-19T02:21:40;11.48;;;10.57;;
11709;SDS011;5911;51.036;6.972;2022-08-19T02:24:09;12.45;;;11.45;;
11709;SDS011;5911;51.036;6.972;2022-08-19T02:26:38;13.18;;;12.07;;
11709;SDS011;5911;51.036;6.972;2022-08-19T02:29:07;13.38;;;12.27;;
11709;SDS011;5911;51.036;6.972;2022-08-19T02:31:36;12.65;;;11.55;;
11709;SDS011;5911;51.036;6.972;2022-08-19T02:34:04;13.20;;;12.05;;
11709;SDS011;5911;51.036;6.972;2022-08-19T02:36:32;13.75;;;12.55;;
11709;SDS011;5911;51.036;6.972;2022-08-19T02:39:00;12.90;;;11.88;;
11709;SDS011;5911;51.036;6.972;2022-08-19T02:41:28;12.75;;;11.75;;
11709;SDS011;5911;51.036;6.972;2022-08-19T02:43:57;14.13;;;13.00;;
11709;SDS011;5911;51.036;6.972;2022-08-19T02:46:48;13.55;;;12.45;;
11709;SDS011;5911;51.036;6.972;2022-08-19T02:49:18;13.30;;;12.18;;
11709;SDS011;5911;51.036;6.972;2022-08-19T02:51:46;14.60;;;13.30;;
11709;SDS011;5911;51.036;6.972;2022-08-19T02:54:14;14.15;;;12.95;;
11709;SDS011;5911;51.036;6.972;2022-08-19T02:56:42;14.50;;;13.20;;
11709;SDS011;5911;51.036;6.972;2022-08-19T02:59:11;14.50;;;13.20;;
11709;SDS011;5911;51.036;6.972;2022-08-19T03:01:39;15.43;;;14.02;;
11709;SDS011;5911;51.036;6.972;2022-08-19T03:04:11;13.63;;;12.50;;
11709;SDS011;5911;51.036;6.972;2022-08-19T03:06:43;14.40;;;13.13;;
11709;SDS011;5911;51.036;6.972;2022-08-19T03:09:13;14.95;;;13.65;;
11709;SDS011;5911;51.036;6.972;2022-08-19T03:11:42;13.90;;;12.80;;
11709;SDS011;5911;51.036;6.972;2022-08-19T03:14:10;13.77;;;12.63;;
11709;SDS011;5911;51.036;6.972;2022-08-19T03:16:40;14.73;;;13.43;;
11709;SDS011;5911;51.036;6.972;2022-08-19T03:19:11;14.52;;;13.13;;
11709;SDS011;5911;51.036;6.972;2022-08-19T03:21:42;14.90;;;13.68;;
11709;SDS011;5911;51.036;6.972;2022-08-19T03:24:11;14.40;;;13.27;;
11709;SDS011;5911;51.036;6.972;2022-08-19T03:26:40;14.13;;;12.93;;
11709;SDS011;5911;51.036;6.972;2022-08-19T03:29:09;14.63;;;13.15;;
11709;SDS011;5911;51.036;6.972;2022-08-19T03:31:39;14.52;;;13.23;;
11709;SDS011;5911;51.036;6.972;2022-08-19T03:34:20;14.80;;;13.38;;
11709;SDS011;5911;51.036;6.972;2022-08-19T03:36:52;14.20;;;13.00;;
11709;SDS011;5911;51.036;6.972;2022-08-19T03:39:21;14.07;;;12.88;;
11709;SDS011;5911;51.036;6.972;2022-08-19T03:41:51;13.80;;;12.63;;
11709;SDS011;5911;51.036;6.972;2022-08-19T03:44:43;14.40;;;13.23;;
11709;SDS011;5911;51.036;6.972;2022-08-19T03:47:12;13.95;;;12.70;;
11709;SDS011;5911;51.036;6.972;2022-08-19T03:49:43;14.55;;;13.18;;
11709;SDS011;5911;51.036;6.972;2022-08-19T03:52:12;13.90;;;12.70;;
11709;SDS011;5911;51.036;6.972;2022-08-19T03:54:40;14.25;;;12.77;;
11709;SDS011;5911;51.036;6.972;2022-08-19T03:57:08;14.18;;;12.98;;
11709;SDS011;5911;51.036;6.972;2022-08-19T03:59:37;14.32;;;12.95;;
11709;SDS011;5911;51.036;6.972;2022-08-19T04:02:06;14.30;;;12.88;;
11709;SDS011;5911;51.036;6.972;2022-08-19T04:04:37;14.82;;;13.52;;
11709;SDS011;5911;51.036;6.972;2022-08-19T04:07:08;14.43;;;13.20;;
11709;SDS011;5911;51.036;6.972;2022-08-19T04:09:36;15.20;;;13.98;;
11709;SDS011;5911;51.036;6.972;2022-08-19T04:12:04;15.13;;;13.77;;
11709;SDS011;5911;51.036;6.972;2022-08-19T04:14:33;16.42;;;14.93;;
11709;SDS011;5911;51.036;6.972;2022-08-19T04:17:02;15.35;;;14.02;;
11709;SDS011;5911;51.036;6.972;2022-08-19T04:19:32;15.63;;;14.30;;
11709;SDS011;5911;51.036;6.972;2022-08-19T04:22:00;16.20;;;14.65;;
11709;SDS011;5911;51.036;6.972;2022-08-19T04:24:30;15.77;;;14.25;;
11709;SDS011;5911;51.036;6.972;2022-08-19T04:26:59;16.05;;;14.55;;
11709;SDS011;5911;51.036;6.972;2022-08-19T04:29:28;16.15;;;14.65;;
11709;SDS011;5911;51.036;6.972;2022-08-19T04:31:56;16.98;;;15.23;;
11709;SDS011;5911;51.036;6.972;2022-08-19T04:34:35;16.08;;;14.57;;
11709;SDS011;5911;51.036;6.972;2022-08-19T04:37:23;15.80;;;14.35;;
11709;SDS011;5911;51.036;6.972;2022-08-19T04:40:02;16.05;;;14.52;;
11709;SDS011;5911;51.036;6.972;2022-08-19T04:42:58;17.25;;;15.65;;
11709;SDS011;5911;51.036;6.972;2022-08-19T04:45:27;16.63;;;14.98;;
11709;SDS011;5911;51.036;6.972;2022-08-19T04:48:08;16.25;;;14.75;;
11709;SDS011;5911;51.036;6.972;2022-08-19T04:50:52;16.00;;;14.50;;
11709;SDS011;5911;51.036;6.972;2022-08-19T04:53:23;16.10;;;14.48;;
11709;SDS011;5911;51.036;6.972;2022-08-19T04:56:05;14.52;;;13.18;;
11709;SDS011;5911;51.036;6.972;2022-08-19T04:58:35;15.57;;;13.98;;
11709;SDS011;5911;51.036;6.972;2022-08-19T05:01:04;16.65;;;14.98;;
11709;SDS011;5911;51.036;6.972;2022-08-19T05:03:33;15.05;;;13.70;;
11709;SDS011;5911;51.036;6.972;2022-08-19T05:06:04;15.95;;;14.45;;
11709;SDS011;5911;51.036;6.972;2022-08-19T05:08:34;16.27;;;14.73;;
11709;SDS011;5911;51.036;6.972;2022-08-19T05:11:08;20.45;;;16.75;;
11709;SDS011;5911;51.036;6.972;2022-08-19T05:13:40;18.30;;;16.48;;
11709;SDS011;5911;51.036;6.972;2022-08-19T05:16:08;17.77;;;16.15;;
11709;SDS011;5911;51.036;6.972;2022-08-19T05:18:38;25.45;;;23.05;;
11709;SDS011;5911;51.036;6.972;2022-08-19T05:21:24;36.42;;;32.40;;
11709;SDS011;5911;51.036;6.972;2022-08-19T05:24:10;35.00;;;31.30;;
11709;SDS011;5911;51.036;6.972;2022-08-19T05:26:41;36.53;;;32.78;;
11709;SDS011;5911;51.036;6.972;2022-08-19T05:29:11;35.88;;;32.17;;
11709;SDS011;5911;51.036;6.972;2022-08-19T05:31:41;36.70;;;33.00;;
11709;SDS011;5911;51.036;6.972;2022-08-19T05:34:09;37.67;;;33.75;;
11709;SDS011;5911;51.036;6.972;2022-08-19T05:36:45;39.75;;;35.35;;
11709;SDS011;5911;51.036;6.972;2022-08-19T05:39:15;40.38;;;36.13;;
11709;SDS011;5911;51.036;6.972;2022-08-19T05:41:49;37.88;;;34.03;;
11709;SDS011;5911;51.036;6.972;2022-08-19T05:44:19;42.33;;;36.22;;
11709;SDS011;5911;51.036;6.972;2022-08-19T05:46:48;38.67;;;34.88;;
11709;SDS011;5911;51.036;6.972;2022-08-19T05:49:20;38.63;;;34.97;;
11709;SDS011;5911;51.036;6.972;2022-08-19T05:51:49;39.80;;;35.90;;
11709;SDS011;5911;51.036;6.972;2022-08-19T05:54:17;39.45;;;35.55;;
11709;SDS011;5911;51.036;6.972;2022-08-19T05:56:46;39.25;;;35.25;;
11709;SDS011;5911;51.036;6.972;2022-08-19T05:59:16;41.63;;;37.38;;
11709;SDS011;5911;51.036;6.972;2022-08-19T06:01:46;39.28;;;35.28;;
11709;SDS011;5911;51.036;6.972;2022-08-19T06:04:17;36.80;;;33.20;;
11709;SDS011;5911;51.036;6.972;2022-08-19T06:06:50;40.13;;;35.90;;
11709;SDS011;5911;51.036;6.972;2022-08-19T06:09:19;38.95;;;35.15;;
11709;SDS011;5911;51.036;6.972;2022-08-19T06:11:48;42.97;;;38.58;;
11709;SDS011;5911;51.036;6.972;2022-08-19T06:14:23;41.22;;;36.97;;
11709;SDS011;5911;51.036;6.972;2022-08-19T06:16:53;42.45;;;38.33;;
11709;SDS011;5911;51.036;6.972;2022-08-19T06:19:22;40.88;;;36.75;;
11709;SDS011;5911;51.036;6.972;2022-08-19T06:21:52;41.95;;;37.80;;
11709;SDS011;5911;51.036;6.972;2022-08-19T06:24:22;41.33;;;37.38;;
11709;SDS011;5911;51.036;6.972;2022-08-19T06:26:52;38.30;;;34.50;;
11709;SDS011;5911;51.036;6.972;2022-08-19T06:29:28;40.25;;;36.25;;
11709;SDS011;5911;51.036;6.972;2022-08-19T06:31:59;41.83;;;37.47;;
11709;SDS011;5911;51.036;6.972;2022-08-19T06:34:32;38.70;;;34.78;;
11709;SDS011;5911;51.036;6.972;2022-08-19T06:37:01;40.83;;;36.63;;
11709;SDS011;5911;51.036;6.972;2022-08-19T06:39:32;38.42;;;34.35;;
11709;SDS011;5911;51.036;6.972;2022-08-19T06:42:02;35.05;;;31.58;;
11709;SDS011;5911;51.036;6.972;2022-08-19T06:44:38;34.92;;;31.23;;
11709;SDS011;5911;51.036;6.972;2022-08-19T06:47:15;34.88;;;31.30;;
11709;SDS011;5911;51.036;6.972;2022-08-19T06:49:54;36.40;;;32.78;;
11709;SDS011;5911;51.036;6.972;2022-08-19T06:52:28;38.50;;;34.58;;
11709;SDS011;5911;51.036;6.972;2022-08-19T06:54:59;35.30;;;31.67;;
11709;SDS011;5911;51.036;6.972;2022-08-19T06:57:32;37.20;;;33.13;;
11709;SDS011;5911;51.036;6.972;2022-08-19T07:00:02;33.65;;;30.23;;
11709;SDS011;5911;51.036;6.972;2022-08-19T07:02:38;37.95;;;33.63;;
11709;SDS011;5911;51.036;6.972;2022-08-19T07:05:08;35.33;;;31.85;;
11709;SDS011;5911;51.036;6.972;2022-08-19T07:07:38;33.78;;;30.27;;
11709;SDS011;5911;51.036;6.972;2022-08-19T07:10:12;31.55;;;28.33;;
11709;SDS011;5911;51.036;6.972;2022-08-19T07:12:42;33.05;;;29.55;;
11709;SDS011;5911;51.036;6.972;2022-08-19T07:15:12;31.70;;;28.60;;
11709;SDS011;5911;51.036;6.972;2022-08-19T07:17:44;33.42;;;30.02;;
11709;SDS011;5911;51.036;6.972;2022-08-19T07:20:18;31.60;;;28.40;;
11709;SDS011;5911;51.036;6.972;2022-08-19T07:22:46;33.50;;;30.17;;
11709;SDS011;5911;51.036;6.972;2022-08-19T07:25:15;34.92;;;30.80;;
11709;SDS011;5911;51.036;6.972;2022-08-19T07:27:44;31.60;;;28.38;;
11709;SDS011;5911;51.036;6.972;2022-08-19T07:30:21;34.25;;;30.75;;
11709;SDS011;5911;51.036;6.972;2022-08-19T07:32:51;31.75;;;28.42;;
11709;SDS011;5911;51.036;6.972;2022-08-19T07:35:19;31.98;;;28.75;;
11709;SDS011;5911;51.036;6.972;2022-08-19T07:37:48;33.42;;;30.15;;
11709;SDS011;5911;51.036;6.972;2022-08-19T07:40:16;34.00;;;30.50;;
11709;SDS011;5911;51.036;6.972;2022-08-19T07:42:44;32.47;;;28.85;;
11709;SDS011;5911;51.036;6.972;2022-08-19T07:45:12;32.63;;;29.33;;
11709;SDS011;5911;51.036;6.972;2022-08-19T07:47:41;34.10;;;29.70;;
11709;SDS011;5911;51.036;6.972;2022-08-19T07:50:17;34.03;;;30.42;;
11709;SDS011;5911;51.036;6.972;2022-08-19T07:52:47;34.70;;;31.02;;
11709;SDS011;5911;51.036;6.972;2022-08-19T07:55:17;35.25;;;31.42;;
11709;SDS011;5911;51.036;6.972;2022-08-19T07:58:08;36.28;;;32.35;;
11709;SDS011;5911;51.036;6.972;2022-08-19T08:00:37;34.35;;;30.63;;
11709;SDS011;5911;51.036;6.972;2022-08-19T08:03:07;36.05;;;31.77;;
11709;SDS011;5911;51.036;6.972;2022-08-19T08:05:35;37.42;;;32.78;;
11709;SDS011;5911;51.036;6.972;2022-08-19T08:08:21;39.60;;;32.72;;
11709;SDS011;5911;51.036;6.972;2022-08-19T08:11:10;38.72;;;31.85;;
11709;SDS011;5911;51.036;6.972;2022-08-19T08:13:41;35.58;;;31.77;;
11709;SDS011;5911;51.036;6.972;2022-08-19T08:16:09;39.15;;;35.08;;
11709;SDS011;5911;51.036;6.972;2022-08-19T08:18:41;40.45;;;36.08;;
11709;SDS011;5911;51.036;6.972;2022-08-19T08:21:18;42.80;;;36.35;;
11709;SDS011;5911;51.036;6.972;2022-08-19T08:23:46;40.75;;;36.38;;
11709;SDS011;5911;51.036;6.972;2022-08-19T08:26:14;39.03;;;34.80;;
11709;SDS011;5911;51.036;6.972;2022-08-19T08:28:44;40.28;;;35.72;;
11709;SDS011;5911;51.036;6.972;2022-08-19T08:31:15;41.17;;;35.35;;
11709;SDS011;5911;51.036;6.972;2022-08-19T08:33:46;44.63;;;38.33;;
11709;SDS011;5911;51.036;6.972;2022-08-19T08:36:14;39.20;;;35.03;;
11709;SDS011;5911;51.036;6.972;2022-08-19T08:38:43;43.35;;;36.45;;
11709;SDS011;5911;51.036;6.972;2022-08-19T08:41:16;39.20;;;34.95;;
11709;SDS011;5911;51.036;6.972;2022-08-19T08:43:50;41.55;;;37.13;;
11709;SDS011;5911;51.036;6.972;2022-08-19T08:46:21;36.95;;;33.08;;
11709;SDS011;5911;51.036;6.972;2022-08-19T08:49:01;37.13;;;33.08;;
11709;SDS011;5911;51.036;6.972;2022-08-19T08:51:38;35.20;;;30.52;;
11709;SDS011;5911;51.036;6.972;2022-08-19T08:54:14;35.13;;;29.90;;
11709;SDS011;5911;51.036;6.972;2022-08-19T08:56:45;38.50;;;34.42;;
11709;SDS011;5911;51.036;6.972;2022-08-19T08:59:19;39.33;;;34.17;;
11709;SDS011;5911;51.036;6.972;2022-08-19T09:01:50;39.38;;;33.35;;
11709;SDS011;5911;51.036;6.972;2022-08-19T09:04:20;37.38;;;32.03;;
11709;SDS011;5911;51.036;6.972;2022-08-19T09:06:51;35.33;;;31.00;;
11709;SDS011;5911;51.036;6.972;2022-08-19T09:09:50;40.47;;;34.65;;
11709;SDS011;5911;51.036;6.972;2022-08-19T09:12:22;38.63;;;32.70;;
11709;SDS011;5911;51.036;6.972;2022-08-19T09:15:00;41.17;;;33.05;;
11709;SDS011;5911;51.036;6.972;2022-08-19T09:17:31;44.95;;;37.00;;
11709;SDS011;5911;51.036;6.972;2022-08-19T09:20:04;42.67;;;34.53;;
11709;SDS011;5911;51.036;6.972;2022-08-19T09:22:35;38.10;;;32.00;;
11709;SDS011;5911;51.036;6.972;2022-08-19T09:25:04;35.78;;;30.90;;
11709;SDS011;5911;51.036;6.972;2022-08-19T09:27:34;39.45;;;32.83;;
11709;SDS011;5911;51.036;6.972;2022-08-19T09:30:09;40.08;;;34.08;;
11709;SDS011;5911;51.036;6.972;2022-08-19T09:32:41;40.95;;;33.38;;
11709;SDS011;5911;51.036;6.972;2022-08-19T09:35:13;38.30;;;32.30;;
11709;SDS011;5911;51.036;6.972;2022-08-19T09:37:42;40.55;;;35.55;;
11709;SDS011;5911;51.036;6.972;2022-08-19T09:40:10;35.83;;;31.27;;
11709;SDS011;5911;51.036;6.972;2022-08-19T09:42:41;36.80;;;30.85;;
11709;SDS011;5911;51.036;6.972;2022-08-19T09:45:16;32.78;;;29.25;;
11709;SDS011;5911;51.036;6.972;2022-08-19T09:47:47;37.00;;;30.40;;
11709;SDS011;5911;51.036;6.972;2022-08-19T09:50:20;34.28;;;30.20;;
11709;SDS011;5911;51.036;6.972;2022-08-19T09:52:50;31.75;;;28.10;;
11709;SDS011;5911;51.036;6.972;2022-08-19T09:55:23;31.13;;;26.73;;
11709;SDS011;5911;51.036;6.972;2022-08-19T09:57:57;30.50;;;26.08;;
11709;SDS011;5911;51.036;6.972;2022-08-19T10:00:28;31.67;;;26.55;;
11709;SDS011;5911;51.036;6.972;2022-08-19T10:02:58;36.72;;;28.02;;
11709;SDS011;5911;51.036;6.972;2022-08-19T10:05:28;31.48;;;27.40;;
11709;SDS011;5911;51.036;6.972;2022-08-19T10:08:14;30.85;;;24.88;;
11709;SDS011;5911;51.036;6.972;2022-08-19T10:10:46;28.40;;;24.95;;
11709;SDS011;5911;51.036;6.972;2022-08-19T10:13:15;26.27;;;22.25;;
11709;SDS011;5911;51.036;6.972;2022-08-19T10:15:46;28.42;;;25.13;;
11709;SDS011;5911;51.036;6.972;2022-08-19T10:18:17;24.30;;;21.45;;
11709;SDS011;5911;51.036;6.972;2022-08-19T10:20:49;26.02;;;23.27;;
11709;SDS011;5911;51.036;6.972;2022-08-19T10:23:18;24.02;;;21.13;;
11709;SDS011;5911;51.036;6.972;2022-08-19T10:25:47;24.83;;;21.98;;
11709;SDS011;5911;51.036;6.972;2022-08-19T10:28:16;20.75;;;18.52;;
11709;SDS011;5911;51.036;6.972;2022-08-19T10:30:44;23.50;;;19.25;;
11709;SDS011;5911;51.036;6.972;2022-08-19T10:33:13;24.23;;;20.00;;
11709;SDS011;5911;51.036;6.972;2022-08-19T10:36:03;22.48;;;18.48;;
11709;SDS011;5911;51.036;6.972;2022-08-19T10:38:34;18.63;;;16.58;;
11709;SDS011;5911;51.036;6.972;2022-08-19T10:41:07;18.17;;;15.88;;
11709;SDS011;5911;51.036;6.972;2022-08-19T10:43:36;17.17;;;14.95;;
11709;SDS011;5911;51.036;6.972;2022-08-19T10:46:06;19.75;;;16.08;;
11709;SDS011;5911;51.036;6.972;2022-08-19T10:48:42;21.48;;;16.58;;
11709;SDS011;5911;51.036;6.972;2022-08-19T10:51:12;14.40;;;12.88;;
11709;SDS011;5911;51.036;6.972;2022-08-19T10:53:57;14.35;;;12.85;;
11709;SDS011;5911;51.036;6.972;2022-08-19T10:56:26;14.90;;;13.50;;
11709;SDS011;5911;51.036;6.972;2022-08-19T10:59:12;21.65;;;14.00;;
11709;SDS011;5911;51.036;6.972;2022-08-19T11:01:41;15.25;;;11.10;;
11709;SDS011;5911;51.036;6.972;2022-08-19T11:04:10;16.52;;;12.80;;
11709;SDS011;5911;51.036;6.972;2022-08-19T11:06:41;20.25;;;15.88;;
11709;SDS011;5911;51.036;6.972;2022-08-19T11:09:10;18.30;;;15.40;;
11709;SDS011;5911;51.036;6.972;2022-08-19T11:11:38;15.35;;;13.65;;
11709;SDS011;5911;51.036;6.972;2022-08-19T11:14:07;15.15;;;13.65;;
11709;SDS011;5911;51.036;6.972;2022-08-19T11:16:35;15.20;;;13.70;;
11709;SDS011;5911;51.036;6.972;2022-08-19T11:19:05;16.23;;;14.63;;
11709;SDS011;5911;51.036;6.972;2022-08-19T11:21:35;15.05;;;13.52;;
11709;SDS011;5911;51.036;6.972;2022-08-19T11:24:10;15.93;;;14.35;;
11709;SDS011;5911;51.036;6.972;2022-08-19T11:26:41;17.15;;;13.52;;
11709;SDS011;5911;51.036;6.972;2022-08-19T11:29:14;14.63;;;12.40;;
11709;SDS011;5911;51.036;6.972;2022-08-19T11:31:45;16.33;;;14.65;;
11709;SDS011;5911;51.036;6.972;2022-08-19T11:34:15;18.30;;;14.43;;
11709;SDS011;5911;51.036;6.972;2022-08-19T11:36:46;15.63;;;14.13;;
11709;SDS011;5911;51.036;6.972;2022-08-19T11:39:17;13.98;;;12.63;;
11709;SDS011;5911;51.036;6.972;2022-08-19T11:41:47;12.77;;;11.65;;
11709;SDS011;5911;51.036;6.972;2022-08-19T11:44:15;11.68;;;10.13;;
11709;SDS011;5911;51.036;6.972;2022-08-19T11:46:44;14.43;;;13.13;;
11709;SDS011;5911;51.036;6.972;2022-08-19T11:49:15;14.57;;;13.10;;
11709;SDS011;5911;51.036;6.972;2022-08-19T11:51:45;14.98;;;12.30;;
11709;SDS011;5911;51.036;6.972;2022-08-19T11:54:15;13.95;;;12.68;;
11709;SDS011;5911;51.036;6.972;2022-08-19T11:56:44;10.50;;;9.50;;
11709;SDS011;5911;51.036;6.972;2022-08-19T11:59:15;13.27;;;10.27;;
11709;SDS011;5911;51.036;6.972;2022-08-19T12:01:45;12.13;;;10.93;;
11709;SDS011;5911;51.036;6.972;2022-08-19T12:04:12;11.55;;;10.45;;
11709;SDS011;5911;51.036;6.972;2022-08-19T12:06:43;13.65;;;11.00;;
11709;SDS011;5911;51.036;6.972;2022-08-19T12:09:11;12.13;;;10.90;;
11709;SDS011;5911;51.036;6.972;2022-08-19T12:11:42;11.73;;;10.50;;
11709;SDS011;5911;51.036;6.972;2022-08-19T12:14:11;11.38;;;10.15;;
11709;SDS011;5911;51.036;6.972;2022-08-19T12:16:44;10.57;;;9.65;;
11709;SDS011;5911;51.036;6.972;2022-08-19T12:19:21;10.52;;;8.60;;
11709;SDS011;5911;51.036;6.972;2022-08-19T12:21:50;10.13;;;9.02;;
11709;SDS011;5911;51.036;6.972;2022-08-19T12:24:30;10.30;;;8.85;;
11709;SDS011;5911;51.036;6.972;2022-08-19T12:27:02;8.05;;;7.30;;
11709;SDS011;5911;51.036;6.972;2022-08-19T12:29:37;8.10;;;7.30;;
11709;SDS011;5911;51.036;6.972;2022-08-19T12:32:13;10.27;;;7.60;;
11709;SDS011;5911;51.036;6.972;2022-08-19T12:34:43;8.15;;;7.07;;
11709;SDS011;5911;51.036;6.972;2022-08-19T12:37:13;9.40;;;8.50;;
11709;SDS011;5911;51.036;6.972;2022-08-19T12:39:41;7.57;;;6.90;;
11709;SDS011;5911;51.036;6.972;2022-08-19T12:42:11;9.25;;;7.70;;
11709;SDS011;5911;51.036;6.972;2022-08-19T12:44:41;8.32;;;7.47;;
11709;SDS011;5911;51.036;6.972;2022-08-19T12:47:12;8.43;;;7.65;;
11709;SDS011;5911;51.036;6.972;2022-08-19T12:49:41;9.15;;;8.35;;
11709;SDS011;5911;51.036;6.972;2022-08-19T12:52:21;8.75;;;7.90;;
11709;SDS011;5911;51.036;6.972;2022-08-19T12:54:51;9.95;;;8.18;;
11709;SDS011;5911;51.036;6.972;2022-08-19T12:57:26;9.80;;;8.80;;
11709;SDS011;5911;51.036;6.972;2022-08-19T13:00:00;8.65;;;7.78;;
11709;SDS011;5911;51.036;6.972;2022-08-19T13:02:39;8.57;;;6.60;;
11709;SDS011;5911;51.036;6.972;2022-08-19T13:05:16;7.88;;;6.85;;
11709;SDS011;5911;51.036;6.972;2022-08-19T13:07:49;8.48;;;7.38;;
11709;SDS011;5911;51.036;6.972;2022-08-19T13:10:23;6.85;;;6.25;;
11709;SDS011;5911;51.036;6.972;2022-08-19T13:12:55;6.93;;;6.32;;
11709;SDS011;5911;51.036;6.972;2022-08-19T13:15:25;8.20;;;7.30;;
11709;SDS011;5911;51.036;6.972;2022-08-19T13:17:54;8.32;;;7.47;;
11709;SDS011;5911;51.036;6.972;2022-08-19T13:20:25;8.20;;;7.38;;
11709;SDS011;5911;51.036;6.972;2022-08-19T13:22:54;10.55;;;8.00;;
11709;SDS011;5911;51.036;6.972;2022-08-19T13:25:23;7.95;;;6.80;;
11709;SDS011;5911;51.036;6.972;2022-08-19T13:27:52;8.38;;;7.45;;
11709;SDS011;5911;51.036;6.972;2022-08-19T13:30:23;8.93;;;7.80;;
11709;SDS011;5911;51.036;6.972;2022-08-19T13:33:09;7.20;;;6.50;;
11709;SDS011;5911;51.036;6.972;2022-08-19T13:35:43;8.73;;;6.53;;
11709;SDS011;5911;51.036;6.972;2022-08-19T13:38:13;8.77;;;6.60;;
11709;SDS011;5911;51.036;6.972;2022-08-19T13:40:43;7.53;;;6.80;;
11709;SDS011;5911;51.036;6.972;2022-08-19T13:43:12;7.28;;;6.50;;
11709;SDS011;5911;51.036;6.972;2022-08-19T13:45:50;6.88;;;6.18;;
11709;SDS011;5911;51.036;6.972;2022-08-19T13:48:20;7.50;;;6.90;;
11709;SDS011;5911;51.036;6.972;2022-08-19T13:50:48;6.50;;;5.85;;
11709;SDS011;5911;51.036;6.972;2022-08-19T13:53:16;8.48;;;6.40;;
11709;SDS011;5911;51.036;6.972;2022-08-19T13:55:45;6.47;;;5.88;;
11709;SDS011;5911;51.036;6.972;2022-08-19T13:58:13;9.18;;;5.90;;
11709;SDS011;5911;51.036;6.972;2022-08-19T14:00:42;11.38;;;6.53;;
11709;SDS011;5911;51.036;6.972;2022-08-19T14:03:14;6.43;;;5.55;;
11709;SDS011;5911;51.036;6.972;2022-08-19T14:05:42;5.80;;;4.78;;
11709;SDS011;5911;51.036;6.972;2022-08-19T14:08:10;8.32;;;4.88;;
11709;SDS011;5911;51.036;6.972;2022-08-19T14:10:40;7.25;;;4.88;;
11709;SDS011;5911;51.036;6.972;2022-08-19T14:13:12;7.10;;;5.78;;
11709;SDS011;5911;51.036;6.972;2022-08-19T14:15:42;6.80;;;5.10;;
11709;SDS011;5911;51.036;6.972;2022-08-19T14:18:10;7.50;;;5.30;;
11709;SDS011;5911;51.036;6.972;2022-08-19T14:20:39;7.60;;;5.95;;
11709;SDS011;5911;51.036;6.972;2022-08-19T14:23:08;5.60;;;5.10;;
11709;SDS011;5911;51.036;6.972;2022-08-19T14:25:36;7.05;;;4.97;;
11709;SDS011;5911;51.036;6.972;2022-08-19T14:28:04;6.55;;;5.10;;
11709;SDS011;5911;51.036;6.972;2022-08-19T14:30:34;5.28;;;4.20;;
11709;SDS011;5911;51.036;6.972;2022-08-19T14:33:04;5.97;;;4.22;;
11709;SDS011;5911;51.036;6.972;2022-08-19T14:35:34;6.07;;;4.65;;
11709;SDS011;5911;51.036;6.972;2022-08-19T14:38:04;4.88;;;4.10;;
11709;SDS011;5911;51.036;6.972;2022-08-19T14:40:34;4.07;;;3.70;;
11709;SDS011;5911;51.036;6.972;2022-08-19T14:43:02;6.57;;;4.50;;
11709;SDS011;5911;51.036;6.972;2022-08-19T14:45:32;5.15;;;4.15;;
11709;SDS011;5911;51.036;6.972;2022-08-19T14:48:02;6.60;;;4.57;;
11709;SDS011;5911;51.036;6.972;2022-08-19T14:50:30;5.07;;;4.63;;
11709;SDS011;5911;51.036;6.972;2022-08-19T14:53:00;5.93;;;4.78;;
11709;SDS011;5911;51.036;6.972;2022-08-19T14:55:41;5.47;;;4.15;;
11709;SDS011;5911;51.036;6.972;2022-08-19T14:58:09;6.63;;;4.55;;
11709;SDS011;5911;51.036;6.972;2022-08-19T15:00:56;4.43;;;4.03;;
11709;SDS011;5911;51.036;6.972;2022-08-19T15:03:25;6.78;;;3.90;;
11709;SDS011;5911;51.036;6.972;2022-08-19T15:05:53;4.25;;;3.83;;